createdAt,value
2022-09-28T00:01:22.586Z,0.43
2022-09-28T00:03:54.604Z,0.63
2022-09-28T00:06:24.636Z,0.40
2022-09-28T00:08:52.842Z,0.40
2022-09-28T00:11:21.643Z,0.40
2022-09-28T00:13:51.826Z,0.33
2022-09-28T00:16:21.618Z,0.43
2022-09-28T00:18:51.059Z,0.60
2022-09-28T00:21:24.206Z,0.53
2022-09-28T00:24:35.531Z,0.50
2022-09-28T00:27:03.988Z,0.40
2022-09-28T00:29:36.062Z,0.50
2022-09-28T00:32:10.341Z,0.40
2022-09-28T00:34:42.756Z,0.60
2022-09-28T00:37:10.647Z,0.40
2022-09-28T00:39:41.324Z,0.60
2022-09-28T00:42:16.388Z,0.60
2022-09-28T00:44:53.216Z,0.50
2022-09-28T00:47:43.095Z,0.50
2022-09-28T00:50:29.750Z,0.60
2022-09-28T00:53:04.079Z,0.40
2022-09-28T00:55:46.287Z,0.50
2022-09-28T00:58:19.235Z,0.50
2022-09-28T01:00:46.692Z,0.40
2022-09-28T01:03:14.332Z,0.50
2022-09-28T01:05:41.859Z,0.40
2022-09-28T01:08:11.257Z,0.43
2022-09-28T01:10:40.735Z,0.43
2022-09-28T01:13:08.173Z,0.30
2022-09-28T01:15:41.584Z,0.30
2022-09-28T01:18:22.234Z,0.40
2022-09-28T01:21:15.751Z,0.47
2022-09-28T01:24:05.066Z,0.30
2022-09-28T01:27:00.136Z,0.40
2022-09-28T01:29:36.677Z,0.50
2022-09-28T01:32:37.473Z,0.60
2022-09-28T01:35:17.360Z,0.30
2022-09-28T01:38:00.782Z,0.50
2022-09-28T01:40:30.146Z,0.50
2022-09-28T01:43:10.973Z,0.60
2022-09-28T01:45:55.107Z,0.57
2022-09-28T01:48:54.204Z,0.50
2022-09-28T01:51:46.992Z,0.60
2022-09-28T01:54:29.068Z,0.83
2022-09-28T01:57:18.127Z,1.50
2022-09-28T02:00:07.188Z,2.20
2022-09-28T02:02:56.153Z,1.27
2022-09-28T02:05:51.114Z,0.80
2022-09-28T02:08:35.152Z,0.70
2022-09-28T02:11:29.391Z,0.60
2022-09-28T02:14:03.843Z,0.70
2022-09-28T02:16:46.394Z,0.70
2022-09-28T02:19:19.970Z,0.53
2022-09-28T02:22:00.319Z,0.63
2022-09-28T02:24:49.116Z,0.63
2022-09-28T02:27:32.744Z,0.70
2022-09-28T02:30:00.686Z,0.50
2022-09-28T02:32:30.854Z,0.40
2022-09-28T02:34:59.672Z,0.60
2022-09-28T02:37:27.855Z,0.63
2022-09-28T02:39:55.536Z,0.60
2022-09-28T02:42:49.708Z,0.80
2022-09-28T02:45:38.715Z,0.63
2022-09-28T02:49:10.609Z,0.70
2022-09-28T02:52:01.094Z,0.40
2022-09-28T02:55:01.060Z,0.47
2022-09-28T02:57:41.630Z,0.40
2022-09-28T03:00:17.485Z,0.60
2022-09-28T03:02:53.844Z,0.40
2022-09-28T03:05:21.439Z,0.50
2022-09-28T03:08:06.403Z,0.63
2022-09-28T03:10:52.928Z,0.40
2022-09-28T03:13:20.946Z,0.60
2022-09-28T03:15:49.772Z,0.50
2022-09-28T03:18:18.456Z,0.57
2022-09-28T03:20:45.747Z,0.67
2022-09-28T03:23:24.488Z,0.70
2022-09-28T03:25:53.249Z,0.40
2022-09-28T03:28:21.416Z,0.60
2022-09-28T03:30:50.025Z,0.60
2022-09-28T03:33:20.020Z,0.60
2022-09-28T03:35:48.479Z,0.50
2022-09-28T03:38:20.506Z,0.70
2022-09-28T03:40:59.707Z,0.83
2022-09-28T03:43:31.083Z,0.60
2022-09-28T03:46:02.141Z,0.70
2022-09-28T03:48:34.153Z,0.87
2022-09-28T03:51:04.210Z,0.70
2022-09-28T03:53:33.360Z,1.03
2022-09-28T03:56:07.310Z,1.00
2022-09-28T03:58:34.840Z,0.80
2022-09-28T04:01:09.950Z,0.70
2022-09-28T04:03:40.270Z,0.90
2022-09-28T04:06:08.190Z,0.83
2022-09-28T04:08:36.062Z,0.77
2022-09-28T04:11:03.716Z,0.90
2022-09-28T04:13:31.656Z,1.10
2022-09-28T04:16:01.446Z,0.93
2022-09-28T04:18:32.911Z,0.87
2022-09-28T04:21:09.086Z,1.03
2022-09-28T04:23:58.093Z,0.80
2022-09-28T04:26:27.389Z,1.10
2022-09-28T04:29:13.252Z,0.90
2022-09-28T04:31:50.830Z,0.90
2022-09-28T04:34:21.923Z,1.10
2022-09-28T04:36:50.183Z,1.10
2022-09-28T04:39:19.495Z,1.17
2022-09-28T04:41:57.062Z,1.20
2022-09-28T04:44:24.524Z,1.13
2022-09-28T04:47:00.597Z,1.00
2022-09-28T04:49:30.163Z,0.97
2022-09-28T04:52:02.503Z,0.97
2022-09-28T04:54:29.901Z,1.20
2022-09-28T04:56:58.331Z,0.90
2022-09-28T04:59:26.142Z,1.20
2022-09-28T05:01:54.246Z,0.90
2022-09-28T05:04:44.604Z,1.60
2022-09-28T05:07:31.551Z,1.37
2022-09-28T05:10:01.844Z,1.23
2022-09-28T05:12:31.590Z,1.33
2022-09-28T05:15:00.589Z,1.10
2022-09-28T05:17:28.495Z,1.50
2022-09-28T05:20:09.947Z,1.40
2022-09-28T05:22:37.204Z,1.40
2022-09-28T05:25:06.247Z,1.80
2022-09-28T05:27:45.233Z,1.90
2022-09-28T05:30:29.870Z,2.17
2022-09-28T05:33:15.779Z,4.73
2022-09-28T05:35:53.353Z,2.30
2022-09-28T05:38:21.967Z,1.90
2022-09-28T05:40:49.416Z,1.70
2022-09-28T05:43:17.194Z,1.60
2022-09-28T05:45:44.787Z,4.00
2022-09-28T05:48:12.051Z,1.67
2022-09-28T05:50:39.591Z,1.50
2022-09-28T05:53:08.962Z,1.70
2022-09-28T05:55:37.901Z,2.17
2022-09-28T05:58:06.588Z,2.30
2022-09-28T06:00:34.695Z,2.20
2022-09-28T06:03:08.691Z,1.93
2022-09-28T06:05:37.768Z,1.60
2022-09-28T06:08:08.201Z,1.70
2022-09-28T06:10:35.776Z,1.60
2022-09-28T06:13:03.508Z,1.60
2022-09-28T06:15:32.563Z,1.80
2022-09-28T06:18:10.537Z,3.03
2022-09-28T06:20:58.113Z,2.87
2022-09-28T06:23:34.549Z,1.70
2022-09-28T06:26:02.041Z,1.50
2022-09-28T06:28:31.006Z,2.50
2022-09-28T06:31:00.888Z,2.10
2022-09-28T06:33:30.330Z,1.67
2022-09-28T06:35:59.856Z,2.07
2022-09-28T06:38:27.320Z,2.70
2022-09-28T06:40:56.511Z,2.50
2022-09-28T06:43:24.061Z,2.80
2022-09-28T06:46:27.252Z,1.90
2022-09-28T06:49:17.370Z,1.43
2022-09-28T06:52:12.664Z,2.17
2022-09-28T06:55:00.138Z,1.30
2022-09-28T06:57:39.285Z,1.70
2022-09-28T07:00:07.158Z,1.80
2022-09-28T07:02:34.665Z,1.40
2022-09-28T07:05:26.894Z,1.40
2022-09-28T07:08:16.195Z,1.60
2022-09-28T07:11:06.308Z,1.63
2022-09-28T07:13:51.670Z,1.90
2022-09-28T07:16:26.904Z,1.47
2022-09-28T07:18:55.615Z,1.23
2022-09-28T07:21:29.522Z,1.57
2022-09-28T07:23:57.908Z,1.50
2022-09-28T07:26:26.051Z,1.80
2022-09-28T07:29:02.520Z,1.40
2022-09-28T07:31:48.477Z,1.80
2022-09-28T07:34:41.605Z,2.10
2022-09-28T07:37:18.826Z,2.50
2022-09-28T07:40:05.216Z,1.87
2022-09-28T07:42:36.402Z,2.10
2022-09-28T07:45:04.235Z,1.70
2022-09-28T07:47:35.007Z,2.93
2022-09-28T07:50:21.475Z,1.80
2022-09-28T07:52:59.111Z,1.90
2022-09-28T07:55:32.176Z,1.87
2022-09-28T07:58:09.484Z,1.80
2022-09-28T08:00:55.498Z,1.90
2022-09-28T08:03:22.975Z,2.67
2022-09-28T08:05:50.273Z,2.30
2022-09-28T08:08:18.457Z,2.53
2022-09-28T08:10:47.417Z,3.00
2022-09-28T08:13:41.183Z,2.00
2022-09-28T08:16:22.612Z,4.17
2022-09-28T08:19:10.066Z,2.40
2022-09-28T08:21:46.427Z,1.90
2022-09-28T08:24:15.985Z,1.77
2022-09-28T08:26:44.469Z,2.20
2022-09-28T08:29:15.263Z,2.17
2022-09-28T08:31:51.452Z,2.43
2022-09-28T08:34:42.043Z,6.37
2022-09-28T08:37:20.339Z,4.53
2022-09-28T08:40:13.357Z,10.20
2022-09-28T08:43:01.211Z,10.87
2022-09-28T08:45:59.208Z,6.87
2022-09-28T08:49:30.897Z,6.60
2022-09-28T08:52:25.956Z,6.60
2022-09-28T08:55:31.526Z,8.37
2022-09-28T08:58:15.167Z,3.63
2022-09-28T09:00:47.769Z,2.30
2022-09-28T09:03:23.757Z,3.63
2022-09-28T09:06:26.128Z,3.63
2022-09-28T09:09:13.447Z,2.90
2022-09-28T09:11:58.816Z,2.53
2022-09-28T09:18:54.139Z,1.83
2022-09-28T09:21:51.723Z,1.40
2022-09-28T09:24:41.808Z,1.90
2022-09-28T09:27:17.753Z,1.30
2022-09-28T09:29:56.599Z,1.80
2022-09-28T09:32:47.197Z,1.20
2022-09-28T09:35:46.721Z,1.00
2022-09-28T09:39:08.816Z,0.80
2022-09-28T09:42:05.979Z,0.90
2022-09-28T09:45:09.512Z,0.73
2022-09-28T09:48:00.764Z,0.80
2022-09-28T09:50:39.532Z,0.60
2022-09-28T09:53:28.889Z,0.57
2022-09-28T09:56:07.620Z,0.63
2022-09-28T09:58:56.037Z,0.50
2022-09-28T10:01:39.270Z,0.60
2022-09-28T10:04:30.068Z,0.57
2022-09-28T10:07:06.620Z,0.50
2022-09-28T10:09:44.605Z,0.70
2022-09-28T10:12:38.363Z,0.40
2022-09-28T10:15:07.669Z,0.53
2022-09-28T10:17:46.939Z,0.50
2022-09-28T10:20:39.057Z,0.50
2022-09-28T10:23:25.591Z,0.40
2022-09-28T10:26:02.228Z,0.53
2022-09-28T10:28:48.951Z,0.50
2022-09-28T10:31:42.443Z,0.50
2022-09-28T10:34:28.240Z,0.70
2022-09-28T10:37:04.476Z,0.70
2022-09-28T10:39:55.001Z,0.60
2022-09-28T10:42:31.315Z,1.07
2022-09-28T10:45:22.548Z,0.60
2022-09-28T10:47:51.366Z,0.73
2022-09-28T10:50:28.651Z,0.80
2022-09-28T10:53:16.040Z,1.80
2022-09-28T10:56:28.394Z,1.07
2022-09-28T10:59:42.994Z,0.87
2022-09-28T11:02:26.055Z,0.97
2022-09-28T11:04:59.872Z,0.80
2022-09-28T11:07:33.541Z,0.97
2022-09-28T11:10:02.148Z,0.93
2022-09-28T11:12:44.056Z,1.30
2022-09-28T11:15:20.296Z,1.07
2022-09-28T11:17:50.400Z,0.93
2022-09-28T11:20:28.312Z,1.20
2022-09-28T11:23:20.552Z,1.60
2022-09-28T11:26:04.471Z,1.27
2022-09-28T11:28:43.068Z,1.37
2022-09-28T11:31:27.798Z,2.00
2022-09-28T11:34:24.909Z,0.90
2022-09-28T11:37:42.809Z,1.30
2022-09-28T11:40:42.266Z,1.20
2022-09-28T11:43:33.810Z,1.40
2022-09-28T11:46:08.846Z,1.60
2022-09-28T11:49:01.541Z,1.00
2022-09-28T11:51:34.691Z,1.70
2022-09-28T11:54:14.440Z,0.80
2022-09-28T11:56:47.552Z,1.13
2022-09-28T11:59:40.952Z,0.97
2022-09-28T12:02:19.403Z,1.13
2022-09-28T12:05:08.031Z,0.93
2022-09-28T12:07:43.263Z,0.90
2022-09-28T12:10:48.655Z,0.60
2022-09-28T12:13:25.320Z,0.90
2022-09-28T12:16:27.615Z,0.70
2022-09-28T12:19:05.944Z,1.20
2022-09-28T12:21:56.116Z,1.03
2022-09-28T12:24:33.126Z,1.20
2022-09-28T12:27:15.427Z,0.90
2022-09-28T12:29:55.065Z,1.17
2022-09-28T12:32:45.765Z,0.80
2022-09-28T12:35:20.337Z,0.80
2022-09-28T12:38:28.655Z,1.00
2022-09-28T12:41:54.558Z,0.70
2022-09-28T12:45:00.144Z,0.90
2022-09-28T12:48:00.126Z,0.80
2022-09-28T12:50:59.272Z,1.10
2022-09-28T12:53:53.791Z,0.97
2022-09-28T12:56:39.106Z,0.63
2022-09-28T12:59:27.401Z,0.73
2022-09-28T13:02:31.743Z,0.90
2022-09-28T13:05:07.762Z,0.80
2022-09-28T13:07:58.066Z,1.07
2022-09-28T13:11:07.708Z,1.20
2022-09-28T13:13:38.125Z,0.80
2022-09-28T13:16:31.618Z,0.73
2022-09-28T13:19:15.077Z,1.00
2022-09-28T13:22:16.121Z,0.90
2022-09-28T13:24:45.469Z,1.10
2022-09-28T13:27:24.542Z,0.77
2022-09-28T13:29:54.950Z,0.90
2022-09-28T13:32:26.424Z,1.00
2022-09-28T13:34:54.744Z,1.10
2022-09-28T13:37:25.506Z,0.80
2022-09-28T13:40:06.214Z,0.80
2022-09-28T13:42:59.015Z,0.80
2022-09-28T13:45:53.607Z,0.80
2022-09-28T13:48:36.788Z,1.10
2022-09-28T13:51:24.509Z,1.30
2022-09-28T13:54:22.067Z,1.00
2022-09-28T13:57:06.086Z,0.90
2022-09-28T14:00:00.037Z,1.00
2022-09-28T14:02:54.261Z,1.60
2022-09-28T14:05:41.187Z,1.03
2022-09-28T14:08:09.084Z,1.07
2022-09-28T14:10:52.403Z,0.83
2022-09-28T14:13:45.284Z,0.60
2022-09-28T14:16:24.604Z,1.03
2022-09-28T14:19:21.675Z,1.23
2022-09-28T14:22:17.423Z,1.00
2022-09-28T14:25:24.145Z,0.97
2022-09-28T14:28:35.169Z,0.90
2022-09-28T14:31:14.240Z,1.00
2022-09-28T14:34:02.743Z,0.73
2022-09-28T14:37:05.931Z,0.87
2022-09-28T14:39:55.664Z,1.20
2022-09-28T14:42:25.980Z,0.93
2022-09-28T14:45:08.620Z,0.90
2022-09-28T14:47:36.182Z,1.10
2022-09-28T14:50:29.796Z,1.00
2022-09-28T14:53:26.351Z,1.00
2022-09-28T14:56:07.694Z,0.93
2022-09-28T14:58:37.444Z,0.90
2022-09-28T15:01:12.715Z,1.00
2022-09-28T15:03:44.144Z,1.00
2022-09-28T15:06:16.326Z,1.07
2022-09-28T15:08:44.199Z,1.10
2022-09-28T15:11:24.293Z,1.00
2022-09-28T15:14:06.333Z,1.20
2022-09-28T15:16:37.255Z,0.90
2022-09-28T15:19:35.353Z,1.00
2022-09-28T15:22:04.586Z,1.27
2022-09-28T15:24:34.224Z,1.10
2022-09-28T15:27:19.508Z,0.80
2022-09-28T15:29:58.539Z,1.70
2022-09-28T15:32:28.819Z,3.73
2022-09-28T15:34:57.063Z,5.90
2022-09-28T15:37:39.646Z,4.00
2022-09-28T15:40:17.815Z,1.87
2022-09-28T15:42:46.676Z,3.70
2022-09-28T15:45:14.222Z,2.07
2022-09-28T15:47:44.871Z,1.10
2022-09-28T15:50:28.195Z,0.53
2022-09-28T15:53:05.436Z,0.77
2022-09-28T15:55:42.672Z,0.50
2022-09-28T15:58:19.652Z,0.50
2022-09-28T16:00:50.209Z,0.90
2022-09-28T16:03:17.391Z,0.87
2022-09-28T16:06:11.154Z,1.87
2022-09-28T16:08:48.907Z,2.20
2022-09-28T16:11:31.550Z,1.50
2022-09-28T16:14:17.377Z,0.47
2022-09-28T16:16:48.308Z,0.43
2022-09-28T16:19:30.995Z,0.30
2022-09-28T16:22:01.968Z,0.47
2022-09-28T16:24:36.210Z,0.90
2022-09-28T16:27:28.020Z,1.00
2022-09-28T16:30:20.065Z,0.90
2022-09-28T16:33:29.911Z,1.60
2022-09-28T16:36:02.353Z,1.77
2022-09-28T16:38:30.856Z,2.30
2022-09-28T16:41:02.007Z,1.90
2022-09-28T16:43:34.950Z,1.43
2022-09-28T16:46:12.933Z,1.20
2022-09-28T16:48:51.064Z,1.07
2022-09-28T16:51:20.134Z,0.80
2022-09-28T16:54:05.938Z,1.50
2022-09-28T16:56:34.954Z,2.10
2022-09-28T16:59:02.951Z,3.50
2022-09-28T17:01:31.300Z,3.30
2022-09-28T17:03:58.642Z,8.67
2022-09-28T17:06:26.882Z,3.67
2022-09-28T17:08:58.639Z,4.33
2022-09-28T17:11:26.097Z,1.50
2022-09-28T17:13:58.975Z,1.27
2022-09-28T17:16:49.826Z,1.00
2022-09-28T17:19:24.434Z,1.10
2022-09-28T17:21:52.650Z,1.90
2022-09-28T17:24:20.821Z,1.97
2022-09-28T17:26:50.795Z,1.60
2022-09-28T17:29:19.110Z,1.80
2022-09-28T17:31:47.427Z,1.30
2022-09-28T17:34:16.150Z,1.70
2022-09-28T17:36:44.749Z,1.43
2022-09-28T17:39:21.236Z,1.03
2022-09-28T17:41:48.507Z,0.87
2022-09-28T17:44:16.272Z,0.90
2022-09-28T17:46:48.535Z,0.50
2022-09-28T17:49:16.942Z,0.50
2022-09-28T17:51:44.322Z,0.50
2022-09-28T17:54:13.531Z,0.40
2022-09-28T17:56:42.359Z,0.50
2022-09-28T17:59:14.316Z,0.53
2022-09-28T18:01:41.630Z,0.70
2022-09-28T18:04:23.123Z,0.60
2022-09-28T18:06:55.172Z,0.70
2022-09-28T18:09:25.348Z,0.60
2022-09-28T18:12:00.191Z,0.77
2022-09-28T18:14:28.362Z,0.73
2022-09-28T18:16:55.989Z,0.60
2022-09-28T18:19:23.213Z,0.70
2022-09-28T18:21:50.414Z,0.63
2022-09-28T18:24:17.811Z,0.60
2022-09-28T18:26:45.021Z,0.67
2022-09-28T18:29:12.221Z,0.60
2022-09-28T18:31:39.442Z,0.70
2022-09-28T18:34:06.741Z,0.80
2022-09-28T18:36:35.850Z,0.67
2022-09-28T18:39:03.416Z,0.57
2022-09-28T18:41:30.757Z,0.67
2022-09-28T18:44:00.783Z,0.60
2022-09-28T18:46:29.856Z,0.50
2022-09-28T18:48:57.368Z,0.70
2022-09-28T18:51:24.648Z,0.60
2022-09-28T18:53:52.251Z,0.67
2022-09-28T18:56:20.999Z,0.80
2022-09-28T18:58:51.543Z,1.10
2022-09-28T19:01:36.286Z,0.70
2022-09-28T19:04:07.066Z,0.70
2022-09-28T19:06:36.858Z,0.90
2022-09-28T19:09:04.393Z,1.00
2022-09-28T19:11:31.751Z,6.77
2022-09-28T19:13:59.366Z,2.33
2022-09-28T19:16:30.970Z,2.00
2022-09-28T19:19:02.683Z,5.07
2022-09-28T19:21:30.300Z,1.40
2022-09-28T19:24:00.863Z,0.97
2022-09-28T19:26:29.197Z,1.10
2022-09-28T19:28:57.383Z,1.10
2022-09-28T19:31:25.696Z,0.80
2022-09-28T19:33:52.916Z,0.70
2022-09-28T19:36:23.735Z,0.80
2022-09-28T19:38:53.222Z,0.90
2022-09-28T19:41:43.969Z,0.80
2022-09-28T19:44:19.737Z,0.67
2022-09-28T19:46:47.134Z,0.70
2022-09-28T19:49:22.542Z,0.80
2022-09-28T19:52:11.484Z,0.90
2022-09-28T19:54:39.624Z,1.30
2022-09-28T19:57:09.674Z,1.00
2022-09-28T19:59:37.766Z,0.80
2022-09-28T20:02:10.152Z,1.10
2022-09-28T20:04:37.524Z,1.30
2022-09-28T20:07:05.400Z,1.07
2022-09-28T20:09:32.935Z,1.10
2022-09-28T20:12:00.307Z,0.80
2022-09-28T20:14:32.902Z,1.10
2022-09-28T20:17:01.459Z,0.60
2022-09-28T20:19:28.672Z,0.97
2022-09-28T20:21:59.404Z,0.70
2022-09-28T20:24:28.721Z,0.67
2022-09-28T20:26:56.191Z,0.80
2022-09-28T20:29:24.288Z,0.70
2022-09-28T20:31:52.031Z,0.70
2022-09-28T20:34:19.401Z,0.60
2022-09-28T20:36:46.775Z,0.80
2022-09-28T20:39:14.308Z,0.70
2022-09-28T20:41:42.185Z,0.80
2022-09-28T20:44:09.838Z,0.50
2022-09-28T20:46:38.166Z,0.50
2022-09-28T20:49:07.030Z,0.70
2022-09-28T20:51:34.434Z,0.60
2022-09-28T20:54:01.785Z,0.43
2022-09-28T20:56:31.693Z,0.40
2022-09-28T20:58:58.907Z,0.57
2022-09-28T21:01:28.627Z,0.50
2022-09-28T21:04:00.903Z,0.50
2022-09-28T21:06:31.248Z,0.50
2022-09-28T21:08:58.895Z,0.60
2022-09-28T21:11:28.501Z,1.30
2022-09-28T21:13:58.531Z,0.80
2022-09-28T21:16:27.933Z,0.60
2022-09-28T21:18:55.687Z,0.50
2022-09-28T21:21:24.328Z,0.40
2022-09-28T21:23:55.999Z,0.60
2022-09-28T21:26:28.823Z,0.50
2022-09-28T21:29:00.387Z,0.53
2022-09-28T21:31:32.580Z,0.47
2022-09-28T21:34:00.539Z,0.60
2022-09-28T21:36:27.773Z,0.50
2022-09-28T21:38:55.528Z,0.40
2022-09-28T21:41:23.501Z,0.50
2022-09-28T21:43:51.085Z,0.40
2022-09-28T21:46:18.925Z,0.50
2022-09-28T21:48:46.330Z,0.43
2022-09-28T21:51:15.104Z,0.40
2022-09-28T21:53:42.919Z,0.50
2022-09-28T21:56:12.730Z,0.53
2022-09-28T21:58:40.329Z,0.60
2022-09-28T22:01:20.170Z,0.60
2022-09-28T22:03:50.456Z,0.60
2022-09-28T22:06:19.994Z,0.60
2022-09-28T22:08:48.526Z,0.63
2022-09-28T22:11:21.957Z,0.80
2022-09-28T22:13:51.751Z,0.60
2022-09-28T22:16:21.882Z,0.70
2022-09-28T22:18:49.743Z,0.77
2022-09-28T22:21:22.973Z,0.70
2022-09-28T22:23:50.907Z,0.80
2022-09-28T22:26:21.872Z,0.80
2022-09-28T22:28:51.679Z,0.90
2022-09-28T22:31:22.249Z,1.00
2022-09-28T22:33:49.736Z,1.00
2022-09-28T22:36:17.147Z,0.90
2022-09-28T22:38:44.976Z,1.20
2022-09-28T22:41:14.516Z,0.97
2022-09-28T22:43:43.003Z,1.37
2022-09-28T22:46:12.501Z,1.50
2022-09-28T22:48:40.215Z,1.23
2022-09-28T22:51:07.572Z,1.20
2022-09-28T22:53:35.589Z,1.10
2022-09-28T22:56:05.522Z,1.40
2022-09-28T22:58:34.255Z,1.50
2022-09-28T23:01:12.742Z,1.40
2022-09-28T23:03:42.102Z,1.50
2022-09-28T23:06:10.871Z,1.23
2022-09-28T23:08:38.759Z,1.27
2022-09-28T23:11:07.052Z,1.40
2022-09-28T23:13:35.172Z,1.20
2022-09-28T23:16:05.816Z,1.40
2022-09-28T23:18:36.486Z,1.30
2022-09-28T23:21:06.832Z,1.30
2022-09-28T23:23:34.342Z,1.80
2022-09-28T23:26:09.636Z,1.20
2022-09-28T23:28:36.847Z,1.20
2022-09-28T23:31:11.231Z,1.30
2022-09-28T23:33:38.901Z,1.30
2022-09-28T23:36:06.849Z,1.80
2022-09-28T23:38:34.479Z,1.30
2022-09-28T23:41:01.732Z,1.07
2022-09-28T23:43:29.072Z,1.13
2022-09-28T23:45:56.294Z,1.20
2022-09-28T23:48:23.705Z,1.20
2022-09-28T23:50:51.335Z,1.17
2022-09-28T23:53:18.620Z,1.30
2022-09-28T23:55:46.458Z,1.17
2022-09-28T23:58:13.700Z,1.40
